Time;durP1;ratioP1;P1;durP2;ratioP2;P2;SDS_P1;SDS_P2;PMS_P1;PMS_P2;Temp;Humidity;BMP_temperature;BMP_pressure;BME280_temperature;BME280_humidity;BME280_pressure;Samples;Min_cycle;Max_cycle;Signal;HPM_P1;HPM_P2
2022/09/19 00:01:14;;;;;;;1999.90;999.90;;;10.20;99.90;;;;;;5034910;28;20816;-72
2022/09/19 00:03:42;;;;;;;1999.90;999.90;;;10.20;99.90;;;;;;5034590;28;20171;-72
2022/09/19 00:06:09;;;;;;;1999.90;999.90;;;10.30;99.90;;;;;;5034472;28;20415;-72
2022/09/19 00:08:37;;;;;;;1999.90;999.90;;;10.20;99.90;;;;;;5034255;28;20429;-72
2022/09/19 00:11:06;;;;;;;1999.90;999.90;;;10.30;99.90;;;;;;5034414;28;20409;-72
2022/09/19 00:13:32;;;;;;;1999.90;999.90;;;10.30;99.90;;;;;;5034452;28;20440;-71
2022/09/19 00:15:58;;;;;;;1999.90;999.90;;;10.30;99.90;;;;;;5034095;28;20406;-72
2022/09/19 00:18:24;;;;;;;1999.90;999.90;;;10.40;99.90;;;;;;5034350;28;20428;-72
2022/09/19 00:20:50;;;;;;;1999.90;999.90;;;10.40;99.90;;;;;;5034570;28;20419;-72
2022/09/19 00:26:07;;;;;;;1999.90;999.90;;;10.40;99.90;;;;;;5034541;28;20184;-72
2022/09/19 00:28:33;;;;;;;1999.90;999.90;;;10.40;99.90;;;;;;5034207;28;20416;-72
2022/09/19 00:31:00;;;;;;;1999.90;999.90;;;10.40;99.90;;;;;;5034665;28;20405;-72
2022/09/19 00:33:30;;;;;;;1999.90;999.90;;;10.30;99.90;;;;;;5034715;28;20397;-72
2022/09/19 00:35:56;;;;;;;1999.90;999.90;;;10.30;99.90;;;;;;5034542;28;20406;-72
2022/09/19 00:38:26;;;;;;;1999.90;999.90;;;10.30;99.90;;;;;;5033784;28;20764;-72
2022/09/19 00:40:51;;;;;;;1999.90;999.90;;;10.40;99.90;;;;;;5034153;28;20448;-72
2022/09/19 00:43:19;;;;;;;1999.90;999.90;;;10.40;99.90;;;;;;5035749;28;20768;-71
2022/09/19 00:45:45;;;;;;;1999.90;999.90;;;10.40;99.90;;;;;;5037114;28;20256;-72
2022/09/19 00:48:13;;;;;;;1999.90;999.90;;;10.50;99.90;;;;;;5036241;28;20423;-71
2022/09/19 00:50:40;;;;;;;1999.90;999.90;;;10.40;99.90;;;;;;5036088;28;20810;-72
2022/09/19 00:53:12;;;;;;;1999.90;999.90;;;10.40;99.90;;;;;;5036117;28;20442;-71
2022/09/19 00:55:39;;;;;;;1999.90;999.90;;;10.40;99.90;;;;;;5035724;28;20453;-71
2022/09/19 00:58:14;;;;;;;1999.90;999.90;;;10.40;99.90;;;;;;5035022;28;20445;-71
2022/09/19 01:00:39;;;;;;;1999.90;999.90;;;10.30;99.90;;;;;;5034954;28;20419;-71
2022/09/19 01:03:09;;;;;;;1999.90;999.90;;;10.50;99.90;;;;;;5035272;28;20412;-72
2022/09/19 01:06:02;;;;;;;1999.90;999.90;;;10.40;99.90;;;;;;5033634;28;20449;-72
2022/09/19 01:09:01;;;;;;;1999.90;999.90;;;10.40;99.90;;;;;;5033953;28;20426;-71
2022/09/19 01:11:41;;;;;;;1999.90;999.90;;;10.40;99.90;;;;;;5034436;28;20398;-71
2022/09/19 01:14:37;;;;;;;1999.90;999.90;;;10.40;99.90;;;;;;5033472;28;20413;-70
2022/09/19 01:17:46;;;;;;;1999.90;999.90;;;10.30;99.90;;;;;;5033489;28;20437;-71
2022/09/19 01:20:42;;;;;;;1999.90;999.90;;;10.30;99.90;;;;;;5033281;28;20404;-70
2022/09/19 01:23:19;;;;;;;1999.90;999.90;;;10.30;99.90;;;;;;5033554;28;20429;-70
2022/09/19 01:26:25;;;;;;;1999.90;999.90;;;10.20;99.90;;;;;;5033535;28;21003;-70
2022/09/19 01:28:57;;;;;;;1999.90;999.90;;;10.20;99.90;;;;;;5033130;28;20473;-70
2022/09/19 01:31:33;;;;;;;1999.90;999.90;;;10.20;99.90;;;;;;5033338;28;20402;-70
2022/09/19 01:34:13;;;;;;;1999.90;999.90;;;10.10;99.90;;;;;;5033767;28;20946;-71
2022/09/19 01:36:43;;;;;;;1999.90;999.90;;;10.20;99.90;;;;;;5032935;28;20839;-71
2022/09/19 01:39:11;;;;;;;1999.90;999.90;;;10.10;99.90;;;;;;5034324;28;20432;-71
2022/09/19 01:41:36;;;;;;;1999.90;999.90;;;10.10;99.90;;;;;;5034326;28;20486;-70
2022/09/19 01:44:08;;;;;;;1999.90;999.90;;;10.10;99.90;;;;;;5034181;28;20548;-71
2022/09/19 01:47:04;;;;;;;1999.90;999.90;;;10.10;99.90;;;;;;5033811;28;20254;-70
2022/09/19 01:49:48;;;;;;;1999.90;999.90;;;10.00;99.90;;;;;;5033451;28;20439;-70
2022/09/19 01:52:52;;;;;;;1999.90;999.90;;;10.00;99.90;;;;;;5033378;28;20903;-71
2022/09/19 01:55:17;;;;;;;1999.90;999.90;;;10.00;99.90;;;;;;5033924;28;20420;-71
2022/09/19 01:58:08;;;;;;;1999.90;999.90;;;10.00;99.90;;;;;;5032956;28;20453;-71
2022/09/19 02:00:38;;;;;;;1999.90;999.90;;;10.00;99.90;;;;;;5033384;28;20179;-71
2022/09/19 02:03:37;;;;;;;1999.90;999.90;;;10.00;99.90;;;;;;5033095;28;20415;-71
2022/09/19 02:06:35;;;;;;;1999.90;999.90;;;10.00;99.90;;;;;;5033702;28;20414;-71
2022/09/19 02:09:09;;;;;;;1999.90;999.90;;;10.00;99.90;;;;;;5033698;28;20760;-71
2022/09/19 02:11:34;;;;;;;1999.90;999.90;;;10.00;99.90;;;;;;5033738;28;20425;-71
2022/09/19 02:14:16;;;;;;;1999.90;999.90;;;9.90;99.90;;;;;;5033822;28;20831;-71
2022/09/19 02:17:03;;;;;;;1999.90;999.90;;;9.90;99.90;;;;;;5033152;28;20830;-71
2022/09/19 02:19:32;;;;;;;1999.90;999.90;;;9.90;99.90;;;;;;5034013;28;20450;-71
2022/09/19 02:22:13;;;;;;;1999.90;999.90;;;9.90;99.90;;;;;;5033213;28;20484;-72
2022/09/19 02:24:42;;;;;;;1999.90;999.90;;;9.80;99.90;;;;;;5032719;28;20446;-71
2022/09/19 02:27:15;;;;;;;1999.90;999.90;;;9.80;99.90;;;;;;5032074;28;20436;-72
2022/09/19 02:29:52;;;;;;;1999.90;999.90;;;9.80;99.90;;;;;;5033213;28;20513;-72
2022/09/19 02:32:19;;;;;;;1999.90;999.90;;;9.70;99.90;;;;;;5033608;28;20481;-71
2022/09/19 02:34:46;;;;;;;1999.90;999.90;;;9.70;99.90;;;;;;5033024;28;20975;-72
2022/09/19 02:37:33;;;;;;;1999.90;999.90;;;9.80;99.90;;;;;;5015312;28;20514;-72
2022/09/19 02:40:30;;;;;;;1999.90;999.90;;;9.80;99.90;;;;;;5032567;28;20431;-71
2022/09/19 02:43:04;;;;;;;1999.90;999.90;;;9.80;99.90;;;;;;5032891;28;20441;-72
2022/09/19 02:45:38;;;;;;;1999.90;999.90;;;9.80;99.90;;;;;;5016235;28;20961;-72
2022/09/19 02:48:28;;;;;;;1999.90;999.90;;;9.80;99.90;;;;;;5032659;28;20425;-71
2022/09/19 02:51:06;;;;;;;1999.90;999.90;;;9.80;99.90;;;;;;5033340;28;20889;-72
2022/09/19 02:53:40;;;;;;;1999.90;999.90;;;9.90;99.90;;;;;;5033026;28;20428;-72
2022/09/19 02:56:06;;;;;;;1999.90;999.90;;;9.90;99.90;;;;;;5032652;28;20404;-72
2022/09/19 02:58:41;;;;;;;1999.90;999.90;;;9.80;99.90;;;;;;5031835;28;20456;-72
2022/09/19 03:01:12;;;;;;;1999.90;999.90;;;9.80;99.90;;;;;;5015278;28;20435;-72
2022/09/19 03:06:50;;;;;;;1999.90;999.90;;;9.90;99.90;;;;;;5036688;28;20874;-72
2022/09/19 03:09:20;;;;;;;1999.90;999.90;;;10.00;99.90;;;;;;5022166;28;20425;-72
2022/09/19 03:11:52;;;;;;;1999.90;999.90;;;9.90;99.90;;;;;;5036014;28;20460;-71
2022/09/19 03:14:18;;;;;;;1999.90;999.90;;;9.80;99.90;;;;;;5036207;28;20415;-71
2022/09/19 03:16:47;;;;;;;1999.90;999.90;;;9.80;99.90;;;;;;5035930;28;20819;-72
2022/09/19 03:19:13;;;;;;;1999.90;999.90;;;9.70;99.90;;;;;;5035967;28;20409;-71
2022/09/19 03:21:40;;;;;;;1999.90;999.90;;;9.70;99.90;;;;;;5035875;28;20785;-70
2022/09/19 03:24:07;;;;;;;1999.90;999.90;;;9.60;99.90;;;;;;5035667;28;20447;-72
2022/09/19 03:26:35;;;;;;;1999.90;999.90;;;9.60;99.90;;;;;;5018185;28;20409;-72
2022/09/19 03:29:03;;;;;;;1999.90;999.90;;;9.60;99.90;;;;;;5035819;28;20413;-71
2022/09/19 03:31:29;;;;;;;1999.90;999.90;;;9.60;99.90;;;;;;5035571;28;20412;-71
2022/09/19 03:33:56;;;;;;;1999.90;999.90;;;9.60;99.90;;;;;;5036441;28;20401;-70
2022/09/19 03:36:23;;;;;;;1999.90;999.90;;;9.60;99.90;;;;;;5035932;28;20410;-71
2022/09/19 03:38:49;;;;;;;1999.90;999.90;;;9.60;99.90;;;;;;5035805;28;20490;-71
2022/09/19 03:41:17;;;;;;;1999.90;999.90;;;9.60;99.90;;;;;;5035779;28;20416;-72
2022/09/19 03:43:43;;;;;;;1999.90;999.90;;;9.60;99.90;;;;;;5035662;28;20772;-72
2022/09/19 03:46:13;;;;;;;1999.90;999.90;;;9.70;99.90;;;;;;5034867;28;20402;-72
2022/09/19 03:48:39;;;;;;;1999.90;999.90;;;9.60;99.90;;;;;;5035060;28;20200;-72
2022/09/19 03:51:06;;;;;;;1999.90;999.90;;;9.70;99.90;;;;;;5035075;28;20412;-72
2022/09/19 03:53:32;;;;;;;1999.90;999.90;;;9.70;99.90;;;;;;5034737;28;20410;-70
2022/09/19 03:55:58;;;;;;;1999.90;999.90;;;9.70;99.90;;;;;;5034635;28;20417;-71
2022/09/19 03:58:24;;;;;;;1999.90;999.90;;;9.70;99.90;;;;;;5034226;28;20526;-72
2022/09/19 04:00:50;;;;;;;1999.90;999.90;;;9.70;99.90;;;;;;5034683;28;20946;-72
2022/09/19 04:03:18;;;;;;;1999.90;999.90;;;9.70;99.90;;;;;;5035034;28;20701;-71
2022/09/19 04:05:45;;;;;;;1999.90;999.90;;;9.70;99.90;;;;;;5034729;28;20543;-72
2022/09/19 04:08:11;;;;;;;1999.90;999.90;;;9.80;99.90;;;;;;5034535;28;20789;-72
2022/09/19 04:10:37;;;;;;;1999.90;999.90;;;9.80;99.90;;;;;;5034596;28;20405;-71
2022/09/19 04:13:03;;;;;;;1999.90;999.90;;;9.80;99.90;;;;;;5016385;28;20417;-72
2022/09/19 04:15:29;;;;;;;1999.90;999.90;;;9.80;99.90;;;;;;5034708;28;20412;-70
2022/09/19 04:17:54;;;;;;;1999.90;999.90;;;9.90;99.90;;;;;;5033847;28;20216;-70
2022/09/19 04:20:21;;;;;;;1999.90;999.90;;;9.90;99.90;;;;;;5034163;28;20220;-72
2022/09/19 04:22:47;;;;;;;1999.90;999.90;;;9.90;99.90;;;;;;5036240;28;20161;-71
2022/09/19 04:25:13;;;;;;;1999.90;999.90;;;10.00;99.90;;;;;;5036548;28;20802;-71
2022/09/19 04:27:39;;;;;;;1999.90;999.90;;;10.00;99.90;;;;;;5036467;28;20501;-72
2022/09/19 04:30:06;;;;;;;1999.90;999.90;;;10.10;99.90;;;;;;5035944;28;20489;-71
2022/09/19 04:32:32;;;;;;;1999.90;999.90;;;10.00;99.90;;;;;;5036628;28;20444;-71
2022/09/19 04:34:59;;;;;;;1999.90;999.90;;;10.10;99.90;;;;;;5036282;28;20405;-71
2022/09/19 04:37:26;;;;;;;1999.90;999.90;;;10.00;99.90;;;;;;5036295;28;20425;-71
2022/09/19 04:39:51;;;;;;;1999.90;999.90;;;10.10;99.90;;;;;;5035316;28;20440;-71
2022/09/19 04:42:17;;;;;;;1999.90;999.90;;;10.10;99.90;;;;;;5036000;28;20415;-71
2022/09/19 04:44:44;;;;;;;1999.90;999.90;;;10.10;99.90;;;;;;5036397;28;20674;-71
2022/09/19 04:47:10;;;;;;;1999.90;999.90;;;10.10;99.90;;;;;;5036632;28;20433;-71
2022/09/19 04:49:39;;;;;;;1999.90;999.90;;;10.10;99.90;;;;;;5037270;28;20404;-71
2022/09/19 04:52:14;;;;;;;1999.90;999.90;;;10.10;99.90;;;;;;5036327;28;20399;-71
2022/09/19 04:54:41;;;;;;;1999.90;999.90;;;10.20;99.90;;;;;;5038308;28;20444;-71
2022/09/19 04:57:07;;;;;;;1999.90;999.90;;;10.20;99.90;;;;;;5034570;28;20441;-71
2022/09/19 04:59:34;;;;;;;1999.90;999.90;;;10.20;99.90;;;;;;5034802;28;20553;-71
2022/09/19 05:02:01;;;;;;;1999.90;999.90;;;10.30;99.90;;;;;;5033913;28;20511;-71
2022/09/19 05:04:27;;;;;;;1999.90;999.90;;;10.40;99.90;;;;;;5034124;28;20815;-71
2022/09/19 05:06:53;;;;;;;1999.90;999.90;;;10.50;99.90;;;;;;5033684;28;20509;-71
2022/09/19 05:09:18;;;;;;;1999.90;999.90;;;10.60;99.90;;;;;;5035144;28;20438;-71
2022/09/19 05:11:46;;;;;;;1999.90;999.90;;;10.60;99.90;;;;;;5034682;28;20271;-71
2022/09/19 05:14:13;;;;;;;1999.90;999.90;;;10.70;99.90;;;;;;5035920;28;20180;-71
2022/09/19 05:16:40;;;;;;;1999.90;999.90;;;10.70;99.90;;;;;;5034445;28;20778;-71
2022/09/19 05:19:06;;;;;;;1999.90;999.90;;;10.70;99.90;;;;;;5033586;28;20406;-71
2022/09/19 05:21:33;;;;;;;1999.90;999.90;;;10.70;99.90;;;;;;5033865;28;20467;-70
2022/09/19 05:24:00;;;;;;;1999.90;999.90;;;10.70;99.90;;;;;;5033362;28;20463;-70
2022/09/19 05:26:26;;;;;;;1999.90;999.90;;;10.70;99.90;;;;;;5032775;28;20398;-71
2022/09/19 05:28:51;;;;;;;1999.90;999.90;;;10.70;99.90;;;;;;5032771;28;20429;-71
2022/09/19 05:31:18;;;;;;;1999.90;999.90;;;10.70;99.90;;;;;;5033018;28;20633;-72
2022/09/19 05:33:44;;;;;;;1999.90;999.90;;;10.70;99.90;;;;;;5032690;28;20202;-72
2022/09/19 05:36:10;;;;;;;1999.90;999.90;;;10.70;99.90;;;;;;5032623;28;20492;-72
2022/09/19 05:38:36;;;;;;;1999.90;999.90;;;10.70;99.90;;;;;;5032344;28;20199;-72
2022/09/19 05:41:03;;;;;;;1999.90;999.90;;;10.80;99.90;;;;;;5033343;28;20191;-71
2022/09/19 05:43:29;;;;;;;1999.90;999.90;;;10.90;99.90;;;;;;5032745;28;20171;-71
2022/09/19 05:45:56;;;;;;;1999.90;999.90;;;10.90;99.90;;;;;;5032356;28;20483;-72
2022/09/19 05:48:23;;;;;;;1999.90;999.90;;;11.00;99.90;;;;;;5032627;28;20430;-71
2022/09/19 05:50:50;;;;;;;1999.90;999.90;;;11.00;99.90;;;;;;5033320;28;20759;-70
2022/09/19 05:56:01;;;;;;;1999.90;999.90;;;11.00;99.90;;;;;;5034491;28;20460;-70
2022/09/19 05:58:27;;;;;;;1999.90;999.90;;;11.00;99.90;;;;;;5031753;28;20443;-70
2022/09/19 06:00:53;;;;;;;1999.90;999.90;;;11.00;99.90;;;;;;5032247;28;20401;-70
2022/09/19 06:03:21;;;;;;;1999.90;999.90;;;11.10;99.90;;;;;;5032121;28;20425;-70
2022/09/19 06:05:49;;;;;;;1999.90;999.90;;;11.20;99.90;;;;;;5031981;28;20187;-70
2022/09/19 06:08:16;;;;;;;1999.90;999.90;;;11.20;99.90;;;;;;5031930;28;20422;-70
2022/09/19 06:10:44;;;;;;;1999.90;999.90;;;11.20;99.90;;;;;;5032138;28;20460;-70
2022/09/19 06:13:13;;;;;;;1999.90;999.90;;;11.20;99.90;;;;;;5031994;28;21054;-70
2022/09/19 06:15:39;;;;;;;1999.90;999.90;;;11.30;99.90;;;;;;5031920;28;20516;-70
2022/09/19 06:18:05;;;;;;;1999.90;999.90;;;11.30;99.90;;;;;;5031597;28;20506;-70
2022/09/19 06:20:31;;;;;;;1999.90;999.90;;;11.40;99.90;;;;;;5031903;28;20410;-70
2022/09/19 06:23:02;;;;;;;1999.90;999.90;;;11.50;99.90;;;;;;5031904;28;20469;-70
2022/09/19 06:25:31;;;;;;;1999.90;999.90;;;11.50;99.90;;;;;;5031923;28;20221;-70
2022/09/19 06:27:59;;;;;;;1999.90;999.90;;;11.50;99.90;;;;;;5031480;28;20916;-70
2022/09/19 06:30:26;;;;;;;1999.90;999.90;;;11.50;99.90;;;;;;5031799;28;20426;-70
2022/09/19 06:32:52;;;;;;;1999.90;999.90;;;11.50;99.90;;;;;;5031848;28;20434;-70
2022/09/19 06:35:18;;;;;;;1999.90;999.90;;;11.40;99.90;;;;;;5032020;28;20769;-70
2022/09/19 06:37:44;;;;;;;1999.90;999.90;;;11.40;99.90;;;;;;5035002;28;20509;-70
2022/09/19 06:40:10;;;;;;;1999.90;999.90;;;11.40;99.90;;;;;;5035781;28;20832;-70
2022/09/19 06:42:36;;;;;;;1999.90;999.90;;;11.40;99.90;;;;;;5035719;28;20786;-70
2022/09/19 06:45:05;;;;;;;1999.90;999.90;;;11.50;99.90;;;;;;5035627;28;20443;-70
2022/09/19 06:47:31;;;;;;;1999.90;999.90;;;11.50;99.90;;;;;;5035291;28;20504;-70
2022/09/19 06:49:59;;;;;;;1999.90;999.90;;;11.60;99.90;;;;;;5035637;28;20454;-70
2022/09/19 06:52:24;;;;;;;1999.90;999.90;;;11.60;99.90;;;;;;5035626;28;20183;-70
2022/09/19 06:54:50;;;;;;;1999.90;999.90;;;11.70;99.90;;;;;;5035710;28;20402;-70
2022/09/19 06:57:16;;;;;;;1999.90;999.90;;;11.70;99.90;;;;;;5034972;28;20203;-70
2022/09/19 06:59:41;;;;;;;1999.90;999.90;;;11.80;99.90;;;;;;5035402;28;20168;-70
2022/09/19 07:02:08;;;;;;;1999.90;999.90;;;11.80;99.90;;;;;;5035418;28;20520;-71
2022/09/19 07:04:34;;;;;;;1999.90;999.90;;;11.80;99.90;;;;;;5035317;28;20200;-70
2022/09/19 07:07:00;;;;;;;1999.90;999.90;;;11.90;99.90;;;;;;5035105;28;20524;-70
2022/09/19 07:09:26;;;;;;;1999.90;999.90;;;11.90;99.90;;;;;;5035326;28;20226;-72
2022/09/19 07:11:54;;;;;;;1999.90;999.90;;;12.00;99.90;;;;;;5035343;28;20411;-72
2022/09/19 07:14:20;;;;;;;1999.90;999.90;;;12.00;99.90;;;;;;5035159;28;20230;-72
2022/09/19 07:16:45;;;;;;;1999.90;999.90;;;12.00;99.90;;;;;;5034800;28;20414;-72
2022/09/19 07:19:11;;;;;;;1999.90;999.90;;;12.00;99.90;;;;;;5035121;28;20172;-72
2022/09/19 07:21:36;;;;;;;1999.90;999.90;;;12.00;99.90;;;;;;5035050;28;20222;-72
2022/09/19 07:24:04;;;;;;;1999.90;999.90;;;12.00;99.90;;;;;;5034977;28;20172;-71
2022/09/19 07:26:30;;;;;;;1999.90;999.90;;;12.10;99.90;;;;;;5034706;28;20165;-72
2022/09/19 07:28:56;;;;;;;1999.90;999.90;;;12.10;99.90;;;;;;5034623;28;20426;-72
2022/09/19 07:31:21;;;;;;;1999.90;999.90;;;12.20;99.90;;;;;;5034904;28;20468;-72
2022/09/19 07:33:48;;;;;;;1999.90;999.90;;;12.20;99.90;;;;;;5034859;28;20257;-72
2022/09/19 07:36:14;;;;;;;1999.90;999.90;;;12.30;99.90;;;;;;5034725;28;20318;-72
2022/09/19 07:38:39;;;;;;;1999.90;999.90;;;12.30;99.90;;;;;;5034529;28;20518;-72
2022/09/19 07:41:05;;;;;;;1999.90;999.90;;;12.40;99.90;;;;;;5034622;28;20176;-72
2022/09/19 07:43:31;;;;;;;1999.90;999.90;;;12.50;99.90;;;;;;5034634;28;20254;-72
2022/09/19 07:45:57;;;;;;;1999.90;999.90;;;12.60;99.90;;;;;;5034460;28;20489;-72
2022/09/19 07:48:22;;;;;;;1999.90;999.90;;;12.60;99.90;;;;;;5033723;28;20199;-72
2022/09/19 07:50:48;;;;;;;1999.90;999.90;;;12.60;99.90;;;;;;5036004;28;20192;-71
2022/09/19 07:53:21;;;;;;;1999.90;999.90;;;12.70;99.90;;;;;;5035314;28;20169;-71
2022/09/19 07:55:55;;;;;;;1999.90;999.90;;;12.70;99.90;;;;;;5035885;28;20477;-71
2022/09/19 07:58:25;;;;;;;1999.90;999.90;;;12.90;99.90;;;;;;5035774;28;20468;-71
2022/09/19 08:00:52;;;;;;;1999.90;999.90;;;12.90;99.90;;;;;;5033073;28;20519;-70
2022/09/19 08:03:19;;;;;;;1999.90;999.90;;;13.00;99.90;;;;;;5033507;28;20430;-70
2022/09/19 08:05:48;;;;;;;1999.90;999.90;;;13.00;99.90;;;;;;5034148;28;20459;-70
2022/09/19 08:08:16;;;;;;;1999.90;999.90;;;13.00;99.90;;;;;;5033885;28;20503;-71
2022/09/19 08:10:43;;;;;;;1999.90;999.90;;;13.10;99.90;;;;;;5034145;28;20412;-71
2022/09/19 08:13:11;;;;;;;1999.90;999.90;;;13.20;99.90;;;;;;5034108;28;20924;-72
2022/09/19 08:15:37;;;;;;;1999.90;999.90;;;13.20;99.90;;;;;;5033958;28;20421;-71
2022/09/19 08:18:13;;;;;;;1999.90;999.90;;;13.30;99.90;;;;;;5034554;28;20435;-71
2022/09/19 08:20:39;;;;;;;1999.90;999.90;;;13.40;99.90;;;;;;5034477;28;20414;-71
2022/09/19 08:23:14;;;;;;;1999.90;999.90;;;13.40;99.90;;;;;;5034869;28;20411;-71
2022/09/19 08:25:46;;;;;;;1999.90;999.90;;;13.50;99.90;;;;;;5034381;28;20463;-70
2022/09/19 08:28:12;;;;;;;1999.90;999.90;;;13.70;99.90;;;;;;5033978;28;20508;-69
2022/09/19 08:30:38;;;;;;;1999.90;999.90;;;13.80;99.90;;;;;;5034557;28;20408;-72
2022/09/19 08:33:06;;;;;;;1999.90;999.90;;;13.90;99.90;;;;;;5034554;28;20400;-71
2022/09/19 08:35:37;;;;;;;1999.90;999.90;;;14.00;99.90;;;;;;5033531;28;20334;-71
2022/09/19 08:38:04;;;;;;;1999.90;999.90;;;14.20;99.90;;;;;;5033497;28;20799;-72
2022/09/19 08:40:35;;;;;;;1999.90;999.90;;;14.30;99.90;;;;;;5033459;28;20917;-73
2022/09/19 08:43:38;;;;;;;1999.90;999.90;;;14.30;99.90;;;;;;5033458;28;20439;-73
2022/09/19 08:46:28;;;;;;;1999.90;999.90;;;14.40;99.90;;;;;;5033128;28;20448;-70
2022/09/19 08:48:59;;;;;;;1999.90;999.90;;;14.40;99.90;;;;;;5033427;28;20456;-70
2022/09/19 08:51:29;;;;;;;1999.90;999.90;;;14.60;99.90;;;;;;5033234;28;20462;-70
2022/09/19 08:54:17;;;;;;;1999.90;999.90;;;14.70;99.90;;;;;;5032875;28;20447;-70
2022/09/19 08:56:43;;;;;;;1999.90;999.90;;;14.70;99.90;;;;;;5032876;28;20878;-70
2022/09/19 08:59:15;;;;;;;1999.90;999.90;;;14.80;99.90;;;;;;5032645;28;20434;-70
2022/09/19 09:01:41;;;;;;;1999.90;999.90;;;14.90;99.90;;;;;;5032559;28;20412;-70
2022/09/19 09:04:30;;;;;;;1999.90;999.90;;;15.00;99.90;;;;;;5032999;28;20409;-70
2022/09/19 09:07:08;;;;;;;1999.90;999.90;;;15.00;99.90;;;;;;5032243;28;20430;-69
2022/09/19 09:09:52;;;;;;;1999.90;999.90;;;15.10;99.90;;;;;;5033226;28;20498;-69
2022/09/19 09:12:31;;;;;;;1999.90;999.90;;;15.00;99.90;;;;;;5032714;28;21130;-69
2022/09/19 09:15:06;;;;;;;1999.90;999.90;;;15.00;99.90;;;;;;5032790;28;20924;-69
2022/09/19 09:17:57;;;;;;;1999.90;999.90;;;15.00;99.90;;;;;;5032383;28;20425;-69
2022/09/19 09:20:39;;;;;;;1999.90;999.90;;;15.10;99.90;;;;;;5032841;28;20771;-69
2022/09/19 09:23:26;;;;;;;1999.90;999.90;;;15.10;99.90;;;;;;5089188;27;21056;-70
2022/09/19 09:26:00;;;;;;;1999.90;999.90;;;15.10;99.90;;;;;;5089531;28;20419;-70
2022/09/19 09:28:35;;;;;;;1999.90;999.90;;;15.10;99.90;;;;;;5089194;28;20422;-70
2022/09/19 09:31:25;;;;;;;1999.90;999.90;;;14.90;99.90;;;;;;5089295;28;20909;-70
2022/09/19 09:34:22;;;;;;;1999.90;999.90;;;14.90;99.90;;;;;;5089061;28;20394;-70
2022/09/19 09:36:58;;;;;;;1999.90;999.90;;;15.00;99.90;;;;;;5089022;28;20406;-70
2022/09/19 09:40:09;;;;;;;1999.90;999.90;;;15.10;99.90;;;;;;5097623;23;20492;-72
2022/09/19 09:42:40;;;;;;;1999.90;999.90;;;15.30;99.90;;;;;;5054415;28;20464;-72
2022/09/19 09:45:05;;;;;;;1999.90;999.90;;;15.40;99.90;;;;;;5054272;28;20409;-72
2022/09/19 09:47:48;;;;;;;1999.90;999.90;;;15.30;99.90;;;;;;5057021;28;20521;-72
2022/09/19 09:50:29;;;;;;;1999.90;999.90;;;15.10;99.90;;;;;;5075047;28;20178;-71
2022/09/19 09:53:30;;;;;;;1999.90;999.90;;;15.20;99.90;;;;;;5074772;28;20468;-72
2022/09/19 09:56:17;;;;;;;1999.90;999.90;;;15.20;99.90;;;;;;5073377;28;20408;-71
2022/09/19 10:03:33;;;;;;;1999.90;999.90;;;15.10;99.90;;;;;;5069121;28;20911;-73
2022/09/19 10:04:56;;;;;;;1999.90;999.90;;;15.40;99.90;;;;;;5068411;28;20804;-72
2022/09/19 10:07:34;;;;;;;1999.90;999.90;;;15.40;99.90;;;;;;5067922;28;20494;-73
2022/09/19 10:10:09;;;;;;;1999.90;999.90;;;15.30;99.90;;;;;;5068678;28;20897;-72
2022/09/19 10:13:09;;;;;;;1999.90;999.90;;;15.10;99.90;;;;;;5068653;28;20772;-71
2022/09/19 10:15:39;;;;;;;1999.90;999.90;;;14.90;99.90;;;;;;5065944;28;20427;-70
2022/09/19 10:18:13;;;;;;;1999.90;999.90;;;14.90;99.90;;;;;;5070159;28;20435;-70
2022/09/19 10:20:49;;;;;;;1999.90;999.90;;;15.00;99.90;;;;;;5070469;28;20419;-71
2022/09/19 10:23:24;;;;;;;1999.90;999.90;;;15.10;99.90;;;;;;5070310;28;20423;-71
2022/09/19 10:26:03;;;;;;;1999.90;999.90;;;15.20;99.90;;;;;;5069149;28;20390;-71
2022/09/19 10:28:43;;;;;;;1999.90;999.90;;;15.00;99.90;;;;;;5069536;28;20762;-69
2022/09/19 10:31:30;;;;;;;1999.90;999.90;;;14.90;99.90;;;;;;5068432;28;20436;-72
2022/09/19 10:33:56;;;;;;;1999.90;999.90;;;14.90;99.90;;;;;;5058069;28;20433;-72
2022/09/19 10:36:31;;;;;;;1999.90;999.90;;;14.80;99.90;;;;;;5054595;28;20892;-73
2022/09/19 10:38:59;;;;;;;1999.90;999.90;;;14.70;99.90;;;;;;5068613;28;20252;-73
2022/09/19 10:41:26;;;;;;;1999.90;999.90;;;14.70;99.90;;;;;;5061047;28;20875;-71
2022/09/19 10:44:00;;;;;;;1999.90;999.90;;;14.90;99.90;;;;;;5047540;28;20800;-73
2022/09/19 10:46:35;;;;;;;1999.90;999.90;;;14.80;99.90;;;;;;5055242;28;20839;-71
2022/09/19 10:49:05;;;;;;;1999.90;999.90;;;14.80;99.90;;;;;;5055890;28;20426;-73
2022/09/19 10:51:45;;;;;;;1999.90;999.90;;;14.80;99.90;;;;;;5054547;28;20408;-73
2022/09/19 10:54:36;;;;;;;1999.90;999.90;;;14.80;99.90;;;;;;5056418;28;20457;-73
2022/09/19 10:57:04;;;;;;;1999.90;999.90;;;14.90;99.90;;;;;;5055854;28;20410;-72
2022/09/19 10:59:38;;;;;;;1999.90;999.90;;;15.10;99.90;;;;;;5054424;28;20439;-73
2022/09/19 11:02:24;;;;;;;1999.90;999.90;;;15.30;99.90;;;;;;5054915;28;20908;-71
2022/09/19 11:05:02;;;;;;;1999.90;999.90;;;15.40;99.90;;;;;;5054501;28;20403;-74
2022/09/19 11:07:33;;;;;;;1999.90;999.90;;;15.60;99.90;;;;;;5055088;28;20416;-73
2022/09/19 11:09:59;;;;;;;1999.90;999.90;;;15.90;99.90;;;;;;5053967;28;20439;-72
2022/09/19 11:12:31;;;;;;;1999.90;999.90;;;16.20;99.90;;;;;;5055126;28;20408;-74
2022/09/19 11:14:59;;;;;;;1999.90;999.90;;;16.30;99.90;;;;;;5053776;28;20420;-74
2022/09/19 11:17:37;;;;;;;1999.90;999.90;;;16.60;99.90;;;;;;5053230;28;20416;-74
2022/09/19 11:20:40;;;;;;;1999.90;999.90;;;16.70;99.90;;;;;;5051671;28;20934;-73
2022/09/19 11:23:43;;;;;;;1999.90;999.90;;;16.70;99.90;;;;;;5036107;28;21021;-74
2022/09/19 11:26:20;;;;;;;1999.90;999.90;;;16.80;99.90;;;;;;5053883;28;20410;-74
2022/09/19 11:29:14;;;;;;;1999.90;999.90;;;16.80;99.90;;;;;;5052936;28;20428;-74
2022/09/19 11:31:47;;;;;;;1999.90;999.90;;;16.80;99.90;;;;;;5053655;28;20436;-74
2022/09/19 11:34:25;;;;;;;1999.90;999.90;;;16.90;99.90;;;;;;5053523;28;20410;-73
2022/09/19 11:37:30;;;;;;;1999.90;999.90;;;17.10;99.90;;;;;;5052222;28;20786;-73
2022/09/19 11:40:33;;;;;;;1999.90;999.90;;;17.60;99.90;;;;;;5053009;28;20413;-74
2022/09/19 11:43:19;;;;;;;1999.90;999.90;;;17.90;99.90;;;;;;5065283;28;20464;-74
2022/09/19 11:46:11;;;;;;;1999.90;999.90;;;18.10;99.90;;;;;;5052245;28;20856;-74
2022/09/19 11:48:58;;;;;;;1999.90;999.90;;;18.50;99.90;;;;;;5052539;28;20432;-75
2022/09/19 11:51:51;;;;;;;1999.90;999.90;;;18.70;99.90;;;;;;5052804;28;20402;-73
2022/09/19 11:54:44;;;;;;;1999.90;999.90;;;19.00;99.90;;;;;;5052798;28;20434;-74
2022/09/19 11:57:30;;;;;;;1999.90;999.90;;;19.20;99.90;;;;;;5052237;28;20408;-74
2022/09/19 12:00:21;;;;;;;1999.90;999.90;;;19.30;99.90;;;;;;5052370;28;20406;-74
2022/09/19 12:03:10;;;;;;;1999.90;999.90;;;19.40;99.90;;;;;;5053010;28;20462;-74
2022/09/19 12:05:39;;;;;;;1999.90;999.90;;;19.80;99.90;;;;;;5052376;28;20858;-73
2022/09/19 12:08:28;;;;;;;1999.90;999.90;;;20.30;99.90;;;;;;5051595;28;20418;-74
2022/09/19 12:11:31;;;;;;;1999.90;999.90;;;20.40;99.90;;;;;;5052593;28;20398;-74
2022/09/19 12:13:59;;;;;;;1999.90;999.90;;;20.00;99.90;;;;;;5042212;28;21003;-74
2022/09/19 12:16:35;;;;;;;1999.90;999.90;;;20.40;99.90;;;;;;5052427;28;20403;-74
2022/09/19 12:19:09;;;;;;;1999.90;999.90;;;20.70;99.90;;;;;;5052412;28;20523;-74
2022/09/19 12:21:41;;;;;;;1999.90;999.90;;;21.10;99.90;;;;;;5052063;28;20446;-73
2022/09/19 12:27:25;;;;;;;1999.90;999.90;;;20.60;99.90;;;;;;5051675;28;20472;-73
2022/09/19 12:30:13;;;;;;;1999.90;999.90;;;21.30;99.90;;;;;;5051653;28;20404;-72
2022/09/19 12:33:04;;;;;;;1999.90;999.90;;;21.60;99.90;;;;;;5051737;28;20408;-73
2022/09/19 12:35:39;;;;;;;1999.90;999.90;;;21.30;99.90;;;;;;5051862;28;20401;-72
2022/09/19 12:38:42;;;;;;;1999.90;999.90;;;21.00;99.90;;;;;;5051388;28;20419;-72
2022/09/19 12:41:28;;;;;;;1999.90;999.90;;;21.10;99.90;;;;;;5051752;28;20410;-72
2022/09/19 12:44:23;;;;;;;1999.90;999.90;;;21.20;99.90;;;;;;5051679;28;20427;-74
2022/09/19 12:47:01;;;;;;;1999.90;999.90;;;20.00;99.90;;;;;;5036241;28;20503;-73